createdAt,value
2019-02-14T00:00:59.551Z,52.85
2019-02-14T00:01:59.635Z,53.01
2019-02-14T00:02:59.805Z,47.37
2019-02-14T00:03:59.961Z,50.43
2019-02-14T00:05:00.345Z,50.76
2019-02-14T00:06:00.432Z,46.25
2019-02-14T00:07:00.646Z,49.47
2019-02-14T00:08:00.823Z,49.95
2019-02-14T00:09:00.980Z,45.44
2019-02-14T00:10:01.177Z,44.47
2019-02-14T00:11:01.309Z,44.63
2019-02-14T00:12:01.534Z,48.18
2019-02-14T00:13:01.805Z,65.10
2019-02-14T00:14:01.996Z,46.08
2019-02-14T00:15:02.145Z,45.28
2019-02-14T00:16:02.297Z,46.57
2019-02-14T00:17:02.456Z,46.57
2019-02-14T00:18:04.046Z,46.08
2019-02-14T00:19:02.843Z,45.92
2019-02-14T00:20:02.945Z,46.89
2019-02-14T00:21:03.162Z,48.66
2019-02-14T00:22:03.383Z,44.96
2019-02-14T00:23:03.493Z,45.60
2019-02-14T00:24:03.733Z,47.05
2019-02-14T00:25:03.912Z,46.08
2019-02-14T00:26:04.090Z,62.52
2019-02-14T00:27:04.352Z,57.52
2019-02-14T00:28:04.542Z,49.95
2019-02-14T00:29:04.825Z,52.21
2019-02-14T00:30:04.931Z,50.43
2019-02-14T00:31:05.068Z,58.81
2019-02-14T00:32:05.179Z,50.92
2019-02-14T00:33:05.361Z,47.05
2019-02-14T00:34:05.676Z,49.15
2019-02-14T00:35:06.864Z,45.28
2019-02-14T00:36:06.532Z,46.57
2019-02-14T00:37:06.177Z,46.41
2019-02-14T00:38:06.377Z,44.96
2019-02-14T00:39:06.502Z,45.44
2019-02-14T00:40:06.684Z,45.12
2019-02-14T00:41:06.875Z,44.79
2019-02-14T00:42:07.954Z,46.57
2019-02-14T00:43:07.288Z,47.05
2019-02-14T00:44:07.490Z,47.05
2019-02-14T00:45:07.667Z,46.57
2019-02-14T00:46:08.545Z,46.73
2019-02-14T00:47:08.196Z,56.56
2019-02-14T00:48:08.284Z,54.46
2019-02-14T00:49:08.468Z,44.79
2019-02-14T00:50:08.736Z,51.40
2019-02-14T00:51:08.896Z,51.56
2019-02-14T00:52:09.043Z,45.44
2019-02-14T00:53:09.213Z,45.44
2019-02-14T00:54:09.476Z,45.60
2019-02-14T00:55:09.587Z,45.12
2019-02-14T00:56:10.708Z,54.79
2019-02-14T00:57:09.908Z,55.43
2019-02-14T00:58:10.065Z,48.02
2019-02-14T00:59:10.236Z,47.37
2019-02-14T01:00:10.440Z,49.47
2019-02-14T01:01:10.591Z,64.45
2019-02-14T01:02:10.833Z,67.19
2019-02-14T01:03:10.940Z,70.42
2019-02-14T01:04:11.112Z,50.27
2019-02-14T01:05:11.301Z,46.57
2019-02-14T01:06:11.435Z,49.15
2019-02-14T01:07:12.455Z,56.88
2019-02-14T01:08:11.762Z,48.82
2019-02-14T01:09:11.967Z,46.41
2019-02-14T01:10:12.108Z,45.44
2019-02-14T01:11:13.220Z,48.50
2019-02-14T01:12:12.527Z,56.72
2019-02-14T01:13:12.735Z,55.43
2019-02-14T01:14:12.997Z,45.76
2019-02-14T01:15:13.135Z,49.47
2019-02-14T01:16:13.241Z,49.63
2019-02-14T01:17:13.454Z,45.60
2019-02-14T01:18:14.540Z,64.29
2019-02-14T01:19:15.467Z,56.40
2019-02-14T01:20:14.027Z,48.98
2019-02-14T01:21:14.229Z,45.92
2019-02-14T01:22:14.487Z,45.44
2019-02-14T01:23:14.621Z,48.50
2019-02-14T01:24:14.748Z,48.50
2019-02-14T01:25:14.909Z,51.72
2019-02-14T01:26:15.084Z,46.41
2019-02-14T01:27:15.196Z,47.21
2019-02-14T01:28:15.327Z,48.98
2019-02-14T01:29:15.604Z,54.14
2019-02-14T01:30:15.763Z,49.47
2019-02-14T01:31:15.971Z,45.12
2019-02-14T01:32:16.795Z,62.20
2019-02-14T01:33:16.266Z,44.96
2019-02-14T01:34:16.545Z,44.15
2019-02-14T01:35:16.676Z,44.47
2019-02-14T01:36:16.953Z,44.96
2019-02-14T01:37:17.185Z,44.96
2019-02-14T01:38:17.309Z,67.03
2019-02-14T01:39:17.483Z,65.42
2019-02-14T01:40:17.668Z,46.73
2019-02-14T01:41:17.836Z,48.82
2019-02-14T01:42:17.931Z,46.73
2019-02-14T01:43:18.113Z,56.72
2019-02-14T01:44:18.302Z,57.04
2019-02-14T01:45:18.469Z,45.76
2019-02-14T01:46:18.672Z,44.31
2019-02-14T01:47:18.772Z,44.47
2019-02-14T01:48:19.003Z,47.86
2019-02-14T01:49:19.194Z,49.31
2019-02-14T01:50:19.461Z,51.56
2019-02-14T01:51:19.533Z,48.02
2019-02-14T01:52:19.836Z,60.91
2019-02-14T01:53:20.163Z,49.15
2019-02-14T01:54:20.203Z,48.66
2019-02-14T01:55:20.368Z,46.41
2019-02-14T01:56:20.510Z,52.37
2019-02-14T01:57:20.697Z,49.63
2019-02-14T01:58:20.920Z,47.86
2019-02-14T01:59:21.047Z,62.04
2019-02-14T02:00:21.251Z,45.44
2019-02-14T02:01:21.478Z,45.44
2019-02-14T02:02:21.634Z,45.28
2019-02-14T02:03:21.867Z,44.47
2019-02-14T02:04:22.157Z,46.57
2019-02-14T02:05:22.403Z,49.63
2019-02-14T02:06:23.348Z,49.63
2019-02-14T02:07:22.715Z,52.69
2019-02-14T02:08:22.654Z,57.04
2019-02-14T02:09:22.777Z,64.78
2019-02-14T02:10:22.893Z,50.76
2019-02-14T02:11:23.215Z,45.28
2019-02-14T02:12:23.443Z,44.96
2019-02-14T02:13:24.639Z,45.92
2019-02-14T02:14:23.787Z,48.66
2019-02-14T02:15:23.969Z,71.06
2019-02-14T02:16:24.184Z,54.30
2019-02-14T02:17:24.379Z,64.45
2019-02-14T02:18:24.485Z,46.73
2019-02-14T02:19:24.665Z,53.33
2019-02-14T02:20:33.023Z,52.05
2019-02-14T02:21:26.062Z,46.89
2019-02-14T02:22:25.196Z,45.76
2019-02-14T02:23:25.416Z,67.03
2019-02-14T02:24:25.546Z,49.47
2019-02-14T02:25:26.776Z,46.08
2019-02-14T02:26:26.075Z,46.25
2019-02-14T02:27:26.186Z,47.53
2019-02-14T02:28:26.261Z,49.47
2019-02-14T02:29:26.453Z,51.40
2019-02-14T02:30:26.681Z,44.79
2019-02-14T02:31:26.825Z,44.15
2019-02-14T02:32:27.192Z,51.08
2019-02-14T02:33:27.189Z,52.53
2019-02-14T02:34:27.305Z,46.89
2019-02-14T02:35:27.595Z,46.73
2019-02-14T02:36:27.723Z,47.05
2019-02-14T02:37:27.960Z,46.89
2019-02-14T02:38:28.240Z,46.41
2019-02-14T02:39:28.290Z,52.05
2019-02-14T02:40:28.481Z,46.25
2019-02-14T02:41:29.459Z,45.76
2019-02-14T02:42:28.847Z,48.34
2019-02-14T02:43:29.064Z,51.40
2019-02-14T02:44:29.277Z,55.43
2019-02-14T02:45:29.507Z,62.20
2019-02-14T02:46:29.635Z,46.89
2019-02-14T02:47:29.885Z,50.43
2019-02-14T02:48:29.888Z,49.95
2019-02-14T02:49:30.156Z,68.16
2019-02-14T02:50:30.281Z,51.24
2019-02-14T02:51:30.446Z,49.31
2019-02-14T02:52:30.580Z,46.57
2019-02-14T02:53:30.719Z,45.44
2019-02-14T02:54:30.841Z,45.44
2019-02-14T02:55:31.028Z,51.88
2019-02-14T02:56:31.245Z,46.08
2019-02-14T02:57:31.477Z,45.92
2019-02-14T02:58:31.775Z,44.79
2019-02-14T02:59:31.757Z,44.31
2019-02-14T03:00:32.087Z,44.96
2019-02-14T03:01:32.239Z,44.63
2019-02-14T03:02:32.360Z,45.12
2019-02-14T03:03:32.667Z,45.12
2019-02-14T03:04:32.864Z,44.96
2019-02-14T03:05:33.054Z,46.89
2019-02-14T03:06:33.139Z,46.89
2019-02-14T03:07:33.468Z,67.03
2019-02-14T03:08:34.511Z,53.33
2019-02-14T03:09:33.655Z,69.93
2019-02-14T03:10:33.927Z,55.43
2019-02-14T03:11:33.990Z,46.08
2019-02-14T03:12:34.185Z,46.57
2019-02-14T03:13:34.572Z,45.60
2019-02-14T03:14:34.627Z,62.04
2019-02-14T03:15:34.809Z,57.36
2019-02-14T03:16:35.791Z,62.84
2019-02-14T03:17:35.323Z,53.17
2019-02-14T03:18:36.042Z,50.92
2019-02-14T03:19:35.442Z,66.23
2019-02-14T03:20:35.640Z,51.72
2019-02-14T03:21:36.816Z,66.23
2019-02-14T03:22:35.962Z,65.26
2019-02-14T03:23:36.333Z,64.61
2019-02-14T03:24:36.408Z,45.92
2019-02-14T03:25:36.673Z,46.08
2019-02-14T03:26:36.758Z,45.12
2019-02-14T03:27:37.053Z,44.47
2019-02-14T03:28:37.106Z,44.96
2019-02-14T03:29:37.426Z,43.99
2019-02-14T03:30:37.536Z,45.92
2019-02-14T03:31:37.619Z,68.80
2019-02-14T03:32:37.844Z,46.25
2019-02-14T03:33:38.091Z,45.44
2019-02-14T03:34:38.245Z,45.76
2019-02-14T03:35:38.441Z,45.76
2019-02-14T03:36:38.625Z,47.21
2019-02-14T03:37:38.702Z,65.42
2019-02-14T03:38:38.886Z,48.18
2019-02-14T03:39:39.089Z,58.33
2019-02-14T03:40:39.273Z,64.94
2019-02-14T03:41:39.414Z,45.12
2019-02-14T03:42:39.593Z,51.72
2019-02-14T03:43:41.102Z,49.63
2019-02-14T03:44:40.623Z,63.16
2019-02-14T03:45:40.260Z,48.18
2019-02-14T03:46:42.118Z,49.15
2019-02-14T03:47:41.769Z,48.34
2019-02-14T03:48:40.584Z,64.78
2019-02-14T03:49:40.828Z,65.10
2019-02-14T03:50:41.007Z,67.03
2019-02-14T03:51:41.146Z,59.46
2019-02-14T03:52:42.102Z,63.97
2019-02-14T03:53:41.446Z,61.55
2019-02-14T03:54:42.594Z,66.06
2019-02-14T03:55:41.854Z,49.95
2019-02-14T03:56:42.066Z,46.08
2019-02-14T03:57:42.286Z,45.60
2019-02-14T03:58:42.523Z,67.68
2019-02-14T03:59:42.570Z,56.88
2019-02-14T04:00:42.809Z,46.57
2019-02-14T04:01:42.972Z,61.55
2019-02-14T04:02:43.241Z,71.70
2019-02-14T04:03:43.417Z,65.58
2019-02-14T04:04:43.666Z,62.04
2019-02-14T04:05:43.802Z,64.13
2019-02-14T04:06:43.801Z,49.31
2019-02-14T04:07:43.953Z,51.72
2019-02-14T04:08:44.205Z,48.50
2019-02-14T04:09:44.406Z,58.81
2019-02-14T04:10:44.620Z,62.68
2019-02-14T04:11:44.792Z,62.52
2019-02-14T04:12:44.945Z,57.20
2019-02-14T04:13:45.173Z,63.16
2019-02-14T04:14:45.314Z,47.86
2019-02-14T04:15:45.379Z,48.82
2019-02-14T04:16:45.629Z,47.37
2019-02-14T04:17:45.855Z,62.84
2019-02-14T04:18:46.070Z,63.65
2019-02-14T04:19:46.281Z,65.42
2019-02-14T04:20:46.545Z,67.03
2019-02-14T04:21:46.813Z,65.90
2019-02-14T04:22:46.882Z,65.74
2019-02-14T04:23:47.130Z,68.48
2019-02-14T04:24:47.288Z,67.19
2019-02-14T04:25:47.378Z,49.47
2019-02-14T04:26:47.571Z,61.71
2019-02-14T04:27:47.860Z,60.59
2019-02-14T04:28:47.942Z,62.68
2019-02-14T04:29:48.123Z,65.90
2019-02-14T04:30:48.315Z,63.33
2019-02-14T04:31:48.565Z,48.02
2019-02-14T04:32:48.786Z,65.42
2019-02-14T04:33:49.970Z,64.78
2019-02-14T04:34:49.156Z,70.58
2019-02-14T04:35:49.346Z,67.03
2019-02-14T04:36:49.540Z,68.80
2019-02-14T04:37:49.730Z,65.90
2019-02-14T04:38:49.929Z,59.78
2019-02-14T04:39:50.093Z,69.93
2019-02-14T04:40:50.276Z,64.13
2019-02-14T04:41:50.488Z,67.68
2019-02-14T04:42:50.727Z,70.25
2019-02-14T04:43:50.944Z,67.51
2019-02-14T04:44:51.022Z,66.87
2019-02-14T04:45:51.188Z,68.32
2019-02-14T04:46:51.369Z,66.55
2019-02-14T04:47:51.588Z,69.13
2019-02-14T04:48:51.704Z,52.21
2019-02-14T04:49:51.771Z,64.29
2019-02-14T04:50:51.958Z,65.42
2019-02-14T04:51:52.167Z,63.65
2019-02-14T04:52:52.380Z,73.15
2019-02-14T04:53:52.635Z,67.84
2019-02-14T04:54:52.855Z,66.06
2019-02-14T04:55:53.033Z,60.26
2019-02-14T04:56:53.120Z,63.33
2019-02-14T04:57:54.251Z,63.81
2019-02-14T04:58:53.470Z,50.92
2019-02-14T04:59:53.633Z,65.58
2019-02-14T05:00:53.943Z,48.02
2019-02-14T05:01:54.157Z,66.87
2019-02-14T05:02:54.243Z,66.06
2019-02-14T05:03:54.419Z,66.39
2019-02-14T05:04:54.589Z,67.51
2019-02-14T05:05:54.797Z,66.71
2019-02-14T05:06:54.916Z,67.35
2019-02-14T05:07:55.115Z,66.06
2019-02-14T05:08:55.285Z,67.03
2019-02-14T05:09:55.496Z,47.37
2019-02-14T05:10:55.606Z,68.96
2019-02-14T05:11:55.840Z,69.61
2019-02-14T05:12:56.047Z,67.51
2019-02-14T05:13:56.280Z,65.42
2019-02-14T05:14:56.427Z,74.60
2019-02-14T05:15:56.399Z,66.39
2019-02-14T05:16:56.575Z,59.46
2019-02-14T05:17:56.789Z,67.51
2019-02-14T05:18:56.970Z,67.84
2019-02-14T05:19:57.146Z,67.51
2019-02-14T05:20:57.329Z,65.58
2019-02-14T05:21:57.519Z,63.16
2019-02-14T05:22:57.708Z,62.84
2019-02-14T05:23:57.954Z,67.35
2019-02-14T05:24:58.032Z,66.39
2019-02-14T05:25:58.239Z,68.48
2019-02-14T05:26:58.507Z,70.09
2019-02-14T05:27:58.590Z,67.68
2019-02-14T05:28:58.846Z,66.71
2019-02-14T05:29:59.059Z,64.45
2019-02-14T05:30:59.241Z,67.03
2019-02-14T05:31:59.529Z,68.16
2019-02-14T05:32:59.665Z,67.03
2019-02-14T05:34:00.215Z,66.06
2019-02-14T05:35:00.973Z,69.77
2019-02-14T05:36:00.105Z,64.61
2019-02-14T05:37:00.270Z,67.03
2019-02-14T05:38:00.514Z,66.55
2019-02-14T05:39:00.658Z,68.00
2019-02-14T05:40:01.831Z,70.42
2019-02-14T05:41:00.978Z,69.45
2019-02-14T05:42:01.241Z,68.00
2019-02-14T05:43:01.976Z,68.80
2019-02-14T05:44:01.577Z,68.32
2019-02-14T05:45:01.794Z,66.87
2019-02-14T05:46:01.972Z,68.32
2019-02-14T05:47:02.187Z,69.45
2019-02-14T05:48:02.985Z,67.03
2019-02-14T05:49:02.580Z,68.32
2019-02-14T05:50:02.729Z,64.94
2019-02-14T05:51:02.962Z,65.90
2019-02-14T05:52:03.147Z,68.80
2019-02-14T05:53:03.346Z,66.06
2019-02-14T05:54:03.753Z,67.84
2019-02-14T05:55:03.767Z,67.84
2019-02-14T05:56:03.916Z,69.77
2019-02-14T05:57:04.491Z,65.42
2019-02-14T05:58:04.125Z,68.64
2019-02-14T05:59:04.449Z,65.10
2019-02-14T06:00:04.499Z,69.45
2019-02-14T06:01:04.689Z,68.80
2019-02-14T06:02:04.990Z,63.49
2019-02-14T06:03:05.977Z,70.42
2019-02-14T06:04:05.367Z,69.29
2019-02-14T06:05:06.236Z,70.90
2019-02-14T06:06:06.495Z,68.32
2019-02-14T06:07:05.859Z,69.93
2019-02-14T06:08:05.964Z,67.03
2019-02-14T06:09:06.067Z,69.77
2019-02-14T06:10:06.979Z,68.16
2019-02-14T06:11:06.429Z,74.12
2019-02-14T06:12:06.671Z,71.22
2019-02-14T06:13:06.783Z,69.13
2019-02-14T06:14:06.965Z,69.13
2019-02-14T06:15:07.046Z,70.25
2019-02-14T06:16:07.374Z,65.90
2019-02-14T06:17:07.623Z,69.45
2019-02-14T06:18:07.712Z,73.15
2019-02-14T06:19:07.966Z,66.55
2019-02-14T06:20:08.191Z,68.96
2019-02-14T06:21:08.463Z,66.39
2019-02-14T06:22:08.623Z,63.33
2019-02-14T06:23:08.827Z,68.32
2019-02-14T06:24:08.830Z,68.64
2019-02-14T06:25:09.027Z,69.13
2019-02-14T06:26:09.303Z,70.90
2019-02-14T06:27:09.515Z,70.90
2019-02-14T06:28:09.657Z,70.09
2019-02-14T06:29:10.270Z,79.12
2019-02-14T06:30:09.856Z,71.38
2019-02-14T06:31:10.099Z,68.00
2019-02-14T06:32:10.309Z,68.64
2019-02-14T06:33:11.828Z,91.20
2019-02-14T06:34:11.632Z,75.25
2019-02-14T06:35:11.567Z,69.77
2019-02-14T06:36:12.032Z,70.42
2019-02-14T06:37:11.880Z,72.35
2019-02-14T06:38:11.601Z,65.58
2019-02-14T06:39:12.015Z,69.13
2019-02-14T06:40:12.517Z,65.90
2019-02-14T06:41:12.153Z,68.16
2019-02-14T06:42:12.147Z,67.03
2019-02-14T06:43:12.840Z,66.71
2019-02-14T06:44:14.058Z,69.45
2019-02-14T06:45:17.049Z,69.77
2019-02-14T06:46:13.748Z,65.74
2019-02-14T06:47:12.937Z,63.49
2019-02-14T06:48:13.027Z,66.39
2019-02-14T06:49:13.280Z,71.38
2019-02-14T06:50:13.483Z,67.35
2019-02-14T06:51:13.611Z,70.90
2019-02-14T06:52:14.013Z,69.29
